61C weather

Fort Atkinson Municipal Airport
Fort Atkinson, Wisconsin, United States

Public forecast

Using degrees Fahrenheit for public forecast. Weather courtesy of forecast.io.

METAR (pilot weather report)

Report is more than 6 hours old.

Closest report is Watertown Municipal Airport, 13.1 nm (24.2 km) NNE. Retrieved 2019/07/22 11:35 UTC (2 days ago):

KRYV 221135Z AUTO 02006KT 10SM BKN060 OVC070 17/13 A3009 RMK AO2 T01700130

TAF (pilot weather forecast)

Closest forecast is Dane County Regional Truax Field, 25.2 nm (46.6 km) WNW. Retrieved 2019/07/23 18:24 UTC (6 hours ago):

TAF KMSN 231722Z 2318/2418 34010G18KT P6SM FEW045 TEMPO 2320/2323 -SHRA BKN050 FM240000 33006KT P6SM FEW050 SCT100 FM240300 00000KT P6SM SKC